createdAt,value
2022-10-02T00:09:08.077Z,99815.56
2022-10-02T00:24:17.571Z,99814.31
2022-10-02T00:39:38.583Z,99820.47
2022-10-02T00:55:04.597Z,99823.00
2022-10-02T01:10:07.618Z,99799.09
2022-10-02T01:25:09.817Z,99793.59
2022-10-02T01:40:25.412Z,99777.50
2022-10-02T01:56:05.691Z,99751.22
2022-10-02T02:11:11.785Z,99723.22
2022-10-02T02:26:15.734Z,99691.25
2022-10-02T02:41:24.361Z,99665.34
2022-10-02T02:56:28.708Z,99642.91
2022-10-02T03:11:53.728Z,99622.97
2022-10-02T03:27:00.576Z,99614.56
2022-10-02T03:42:02.754Z,99585.91
2022-10-02T03:57:08.557Z,99550.56
2022-10-02T04:12:34.665Z,99564.94
2022-10-02T04:27:48.203Z,99560.19
2022-10-02T04:43:11.701Z,99544.94
2022-10-02T04:58:29.533Z,99537.03
2022-10-02T05:13:33.903Z,99499.50
2022-10-02T05:28:58.310Z,99497.78
2022-10-02T05:44:07.814Z,99464.94
2022-10-02T05:59:09.775Z,99432.91
2022-10-02T06:14:20.480Z,99421.78
2022-10-02T06:29:29.684Z,99398.91
2022-10-02T06:44:41.358Z,99374.88
2022-10-02T07:00:00.074Z,99378.16
2022-10-02T07:15:11.121Z,99346.84
2022-10-02T07:30:16.614Z,99352.31
2022-10-02T07:45:42.325Z,99319.22
2022-10-02T08:00:55.619Z,99271.44
2022-10-02T08:15:57.628Z,99242.91
2022-10-02T08:30:59.554Z,99239.34
2022-10-02T08:46:25.971Z,99274.63
2022-10-02T09:01:28.408Z,99255.28
2022-10-02T09:17:05.659Z,99246.41
2022-10-02T09:32:29.162Z,99180.53
2022-10-02T09:48:12.019Z,99124.97
2022-10-02T10:03:22.966Z,99110.25
2022-10-02T10:18:41.722Z,99062.44
2022-10-02T10:34:21.902Z,98982.31
2022-10-02T10:49:35.357Z,98937.81
2022-10-02T11:05:10.507Z,98931.56
2022-10-02T11:20:30.577Z,98926.00
2022-10-02T11:35:52.437Z,98900.56
2022-10-02T11:51:31.627Z,98865.84
2022-10-02T12:07:01.005Z,98853.69
2022-10-02T12:22:21.356Z,98833.28
2022-10-02T12:37:38.609Z,98805.69
2022-10-02T12:52:59.012Z,98798.16
2022-10-02T13:08:16.274Z,98786.69
2022-10-02T13:23:38.771Z,98768.00
2022-10-02T13:39:23.807Z,98743.84
2022-10-02T13:54:43.901Z,98753.25
2022-10-02T14:09:58.211Z,98766.44
2022-10-02T14:25:22.993Z,98772.69
2022-10-02T14:41:46.027Z,69644.63
2022-10-02T14:57:28.650Z,69644.63
2022-10-02T15:12:49.176Z,69644.63
2022-10-02T15:28:31.332Z,69644.63
2022-10-02T15:44:19.222Z,69644.63
2022-10-02T15:59:45.283Z,69644.63
2022-10-02T16:14:53.159Z,69644.63
2022-10-02T16:30:16.316Z,69644.63
2022-10-02T16:45:29.360Z,69644.63
2022-10-02T17:02:17.705Z,69644.63
2022-10-02T17:18:16.888Z,69644.63
2022-10-02T17:33:22.378Z,69644.63
2022-10-02T17:48:39.596Z,69644.63
